createdAt,value
2022-12-11T00:02:23.372Z,100295.28
2022-12-11T00:04:53.348Z,100301.91
2022-12-11T00:07:24.099Z,100311.06
2022-12-11T00:09:55.400Z,100308.19
2022-12-11T00:12:25.970Z,100313.13
2022-12-11T00:14:56.502Z,100290.09
2022-12-11T00:17:27.141Z,100321.81
2022-12-11T00:19:57.450Z,100322.56
2022-12-11T00:22:27.929Z,100316.72
2022-12-11T00:24:58.151Z,100322.88
2022-12-11T00:27:28.748Z,100323.59
2022-12-11T00:29:58.804Z,100318.59
2022-12-11T00:32:31.630Z,100324.81
2022-12-11T00:35:05.495Z,100330.41
2022-12-11T00:37:36.879Z,100328.78
2022-12-11T00:40:07.357Z,100332.38
2022-12-11T00:42:37.888Z,100321.19
2022-12-11T00:45:08.638Z,100322.31
2022-12-11T00:47:39.338Z,100318.28
2022-12-11T00:50:10.116Z,100321.06
2022-12-11T00:52:41.836Z,100322.34
2022-12-11T00:55:12.715Z,100328.13
2022-12-11T00:57:46.402Z,100336.16
2022-12-11T01:00:16.624Z,100335.13
2022-12-11T01:02:47.216Z,100337.34
2022-12-11T01:05:17.912Z,100326.66
2022-12-11T01:07:48.522Z,100339.72
2022-12-11T01:10:28.147Z,100341.38
2022-12-11T01:13:07.130Z,100339.53
2022-12-11T01:15:43.031Z,100344.56
2022-12-11T01:18:15.518Z,100345.88
2022-12-11T01:20:45.548Z,100338.44
2022-12-11T01:23:15.673Z,100342.97
2022-12-11T01:25:46.445Z,100346.97
2022-12-11T01:28:16.730Z,100348.97
2022-12-11T01:30:47.605Z,100355.53
2022-12-11T01:33:17.744Z,100359.28
2022-12-11T01:35:48.351Z,100350.19
2022-12-11T01:38:18.536Z,100361.97
2022-12-11T01:40:50.627Z,100352.84
2022-12-11T01:43:21.260Z,100346.31
2022-12-11T01:45:51.817Z,100362.78
2022-12-11T01:48:30.058Z,100365.25
2022-12-11T01:51:04.123Z,100371.63
2022-12-11T01:53:43.254Z,100377.09
2022-12-11T01:56:13.927Z,100371.03
2022-12-11T01:58:50.114Z,100375.84
2022-12-11T02:01:29.664Z,100379.13
2022-12-11T02:04:00.647Z,100374.03
2022-12-11T02:06:33.814Z,100381.19
2022-12-11T02:09:05.877Z,100383.34
2022-12-11T02:11:52.250Z,100384.00
2022-12-11T02:14:46.054Z,100383.63
2022-12-11T02:17:31.718Z,100397.66
2022-12-11T02:20:08.999Z,100389.28
2022-12-11T02:23:16.689Z,100380.06
2022-12-11T02:26:04.745Z,100387.84
2022-12-11T02:28:50.157Z,100379.66
2022-12-11T02:31:25.675Z,100381.84
2022-12-11T02:34:21.858Z,100381.34
2022-12-11T02:36:58.727Z,100382.75
2022-12-11T02:39:31.099Z,100389.00
2022-12-11T02:42:02.497Z,100391.00
2022-12-11T02:44:36.337Z,100363.94
2022-12-11T02:47:13.844Z,100356.75
2022-12-11T02:49:48.188Z,100373.69
2022-12-11T02:52:23.294Z,100382.75
2022-12-11T02:55:01.174Z,100382.47
2022-12-11T02:57:57.018Z,100383.91
2022-12-11T03:00:27.464Z,100378.13
2022-12-11T03:02:58.284Z,100384.97
2022-12-11T03:05:29.156Z,100385.66
2022-12-11T03:07:59.569Z,100388.97
2022-12-11T03:10:30.163Z,100384.75
2022-12-11T03:13:01.803Z,100381.25
2022-12-11T03:16:10.545Z,100391.59
2022-12-11T03:19:10.851Z,100388.41
2022-12-11T03:21:48.556Z,100388.09
2022-12-11T03:24:22.641Z,100384.34
2022-12-11T03:27:01.100Z,100384.75
2022-12-11T03:29:41.010Z,100367.69
2022-12-11T03:32:16.136Z,100376.41
2022-12-11T03:34:58.612Z,100374.19
2022-12-11T03:37:37.532Z,100372.94
2022-12-11T03:40:14.524Z,100369.97
2022-12-11T03:42:48.772Z,100375.75
2022-12-11T03:45:20.887Z,100374.63
2022-12-11T03:47:52.561Z,100371.44
2022-12-11T03:50:24.860Z,100366.47
2022-12-11T03:52:56.594Z,100367.88
2022-12-11T03:55:29.832Z,100352.94
2022-12-11T03:58:00.340Z,100367.94
2022-12-11T04:00:31.296Z,100363.97
2022-12-11T04:03:14.457Z,100357.75
2022-12-11T04:05:50.666Z,100353.78
2022-12-11T04:08:22.292Z,100352.78
2022-12-11T04:11:11.456Z,100348.59
2022-12-11T04:13:43.291Z,100342.19
2022-12-11T04:16:13.485Z,100344.16
2022-12-11T04:19:02.230Z,100340.41
2022-12-11T04:21:50.233Z,100337.44
2022-12-11T04:24:20.893Z,100333.38
2022-12-11T04:26:50.876Z,100343.50
2022-12-11T04:29:24.461Z,100342.84
2022-12-11T04:31:54.497Z,100333.41
2022-12-11T04:34:24.957Z,100334.97
2022-12-11T04:36:55.065Z,100333.22
2022-12-11T04:39:25.476Z,100329.75
2022-12-11T04:41:55.323Z,100321.53
2022-12-11T04:44:25.854Z,100323.72
2022-12-11T04:49:25.026Z,100326.00
2022-12-11T04:51:55.530Z,100324.81
2022-12-11T04:54:25.984Z,100331.53
2022-12-11T04:56:56.496Z,100327.28
2022-12-11T04:59:26.778Z,100319.63
2022-12-11T05:01:57.380Z,100318.00
2022-12-11T05:04:27.930Z,100319.75
2022-12-11T05:09:28.314Z,100322.75
2022-12-11T05:11:58.963Z,100308.25
2022-12-11T05:14:35.717Z,100314.50
2022-12-11T05:17:06.236Z,100307.69
2022-12-11T05:19:36.296Z,100305.25
2022-12-11T05:22:06.751Z,100306.72
2022-12-11T05:24:36.825Z,100307.31
2022-12-11T05:27:07.371Z,100307.41
2022-12-11T05:29:37.602Z,100306.66
2022-12-11T05:32:08.199Z,100301.13
2022-12-11T05:34:38.263Z,100305.94
2022-12-11T05:37:08.961Z,100305.16
2022-12-11T05:39:39.918Z,100300.31
2022-12-11T05:42:10.922Z,100305.25
2022-12-11T05:44:40.981Z,100304.72
2022-12-11T05:47:12.258Z,100298.56
2022-12-11T05:49:42.361Z,100302.81
2022-12-11T05:52:12.805Z,100292.59
2022-12-11T05:54:42.294Z,100284.31
2022-12-11T05:57:11.937Z,100293.50
2022-12-11T05:59:42.453Z,100290.50
2022-12-11T06:02:12.472Z,100291.34
2022-12-11T06:04:43.034Z,100291.75
2022-12-11T06:07:12.959Z,100304.09
2022-12-11T06:09:43.424Z,100297.31
2022-12-11T06:12:13.533Z,100301.84
2022-12-11T06:14:44.085Z,100302.81
2022-12-11T06:17:14.038Z,100296.75
2022-12-11T06:19:44.650Z,100308.84
2022-12-11T06:22:14.606Z,100303.72
2022-12-11T06:24:44.428Z,100311.50
2022-12-11T06:27:14.918Z,100311.63
2022-12-11T06:29:45.005Z,100317.88
2022-12-11T06:32:15.411Z,100325.91
2022-12-11T06:34:45.372Z,100324.81
2022-12-11T06:37:15.944Z,100325.56
2022-12-11T06:39:48.053Z,100321.63
2022-12-11T06:42:19.171Z,100318.94
2022-12-11T06:44:52.202Z,100322.78
2022-12-11T06:47:22.639Z,100325.69
2022-12-11T06:49:52.473Z,100327.13
2022-12-11T06:52:26.645Z,100322.41
2022-12-11T06:54:57.162Z,100318.06
2022-12-11T06:57:27.827Z,100327.28
2022-12-11T06:59:57.802Z,100330.03
2022-12-11T07:02:30.083Z,100331.44
2022-12-11T07:05:00.336Z,100310.19
2022-12-11T07:07:31.455Z,100325.63
2022-12-11T07:10:07.585Z,100337.28
2022-12-11T07:12:38.744Z,100327.47
2022-12-11T07:15:09.642Z,100334.19
2022-12-11T07:17:40.450Z,100337.31
2022-12-11T07:20:11.178Z,100332.56
2022-12-11T07:22:46.717Z,100345.13
2022-12-11T07:25:17.263Z,100343.84
2022-12-11T07:27:47.801Z,100343.31
2022-12-11T07:30:17.880Z,100326.25
2022-12-11T07:32:48.468Z,100351.88
2022-12-11T07:35:18.613Z,100346.78
2022-12-11T07:37:49.212Z,100346.41
2022-12-11T07:40:19.948Z,100353.69
2022-12-11T07:42:50.171Z,100352.63
2022-12-11T07:45:21.105Z,100351.50
2022-12-11T07:47:53.828Z,100350.09
2022-12-11T07:50:27.377Z,100353.00
2022-12-11T07:52:57.458Z,100353.00
2022-12-11T07:55:28.071Z,100345.38
2022-12-11T07:57:58.046Z,100350.28
2022-12-11T08:00:28.444Z,100351.72
2022-12-11T08:02:57.887Z,100363.00
2022-12-11T08:05:27.805Z,100371.19
2022-12-11T08:07:58.204Z,100364.81
2022-12-11T08:10:28.859Z,100355.91
2022-12-11T08:12:59.268Z,100340.09
2022-12-11T08:15:28.771Z,100341.72
2022-12-11T08:17:58.643Z,100335.72
2022-12-11T08:20:28.772Z,100315.19
2022-12-11T08:22:59.566Z,100345.72
2022-12-11T08:25:29.667Z,100339.16
2022-12-11T08:27:59.093Z,100341.34
2022-12-11T08:30:29.773Z,100337.31
2022-12-11T08:33:00.909Z,100336.25
2022-12-11T08:35:31.227Z,100346.41
2022-12-11T08:38:00.740Z,100348.97
2022-12-11T08:40:30.685Z,100345.84
2022-12-11T08:43:00.115Z,100343.03
2022-12-11T08:45:30.443Z,100337.56
2022-12-11T08:48:03.616Z,100338.47
2022-12-11T08:50:34.268Z,100341.19
2022-12-11T08:53:04.217Z,100349.53
2022-12-11T08:55:35.642Z,100344.88
2022-12-11T08:58:05.780Z,100346.88
2022-12-11T09:00:36.381Z,100347.75
2022-12-11T09:03:09.816Z,100352.22
2022-12-11T09:05:42.616Z,100355.81
2022-12-11T09:08:12.293Z,100364.53
2022-12-11T09:10:41.818Z,100361.63
2022-12-11T09:13:12.119Z,100364.34
2022-12-11T09:15:42.965Z,100363.63
2022-12-11T09:18:29.672Z,100349.91
2022-12-11T09:21:04.406Z,100361.78
2022-12-11T09:23:35.115Z,100367.81
2022-12-11T09:26:10.222Z,100378.56
2022-12-11T09:28:46.307Z,100370.59
2022-12-11T09:31:26.635Z,100379.00
2022-12-11T09:33:59.757Z,100385.69
2022-12-11T09:36:30.847Z,100393.41
2022-12-11T09:39:05.863Z,100396.47
2022-12-11T09:41:40.380Z,100394.66
2022-12-11T09:44:16.667Z,100401.53
2022-12-11T09:46:48.256Z,100398.19
2022-12-11T09:49:31.115Z,100382.78
2022-12-11T09:52:28.282Z,100408.94
2022-12-11T09:55:06.269Z,100407.66
2022-12-11T09:57:57.810Z,100401.72
2022-12-11T10:00:39.843Z,100409.19
2022-12-11T10:03:42.034Z,100412.81
2022-12-11T10:06:44.720Z,100403.81
2022-12-11T10:09:38.001Z,100408.22
2022-12-11T10:12:31.819Z,100414.34
2022-12-11T10:15:43.516Z,100415.78
2022-12-11T10:18:19.128Z,100427.81
2022-12-11T10:20:52.249Z,100428.63
2022-12-11T10:23:36.773Z,100425.19
2022-12-11T10:26:17.745Z,100426.25
2022-12-11T10:28:48.451Z,100431.59
2022-12-11T10:31:47.163Z,100442.56
2022-12-11T10:34:35.782Z,100434.91
2022-12-11T10:37:06.201Z,100426.09
2022-12-11T10:39:36.547Z,100433.78
2022-12-11T10:42:20.618Z,100427.81
2022-12-11T10:45:03.246Z,100434.50
2022-12-11T10:47:35.206Z,100433.22
2022-12-11T10:50:06.069Z,100435.44
2022-12-11T10:52:46.670Z,100437.03
2022-12-11T10:55:30.111Z,100435.41
2022-12-11T10:58:04.238Z,100424.56
2022-12-11T11:00:38.109Z,100425.69
2022-12-11T11:03:22.637Z,100422.91
2022-12-11T11:06:18.318Z,100430.13
2022-12-11T11:08:55.623Z,100425.88
2022-12-11T11:11:36.188Z,100427.59
2022-12-11T11:14:16.263Z,100417.78
2022-12-11T11:16:51.936Z,100417.03
2022-12-11T11:19:33.712Z,100411.69
2022-12-11T11:22:15.767Z,100420.72
2022-12-11T11:25:00.364Z,100410.34
2022-12-11T11:27:45.438Z,100400.72
2022-12-11T11:30:29.304Z,100410.50
2022-12-11T11:33:03.767Z,100404.78
2022-12-11T11:35:34.619Z,100413.91
2022-12-11T11:38:27.773Z,100393.72
2022-12-11T11:41:31.958Z,100426.69
2022-12-11T11:44:08.840Z,100415.53
2022-12-11T11:46:56.117Z,100410.09
2022-12-11T11:49:53.701Z,100409.81
2022-12-11T11:52:32.095Z,100416.94
2022-12-11T11:55:10.953Z,100407.47
2022-12-11T11:57:54.814Z,100416.13
2022-12-11T12:00:33.376Z,100412.66
2022-12-11T12:03:12.577Z,100412.16
2022-12-11T12:05:45.861Z,100396.84
2022-12-11T12:08:45.360Z,100398.59
2022-12-11T12:11:28.864Z,100401.56
2022-12-11T12:14:35.903Z,100398.13
2022-12-11T12:17:27.647Z,100397.00
2022-12-11T12:20:19.468Z,100401.03
2022-12-11T12:23:16.806Z,100393.75
2022-12-11T12:25:58.726Z,100396.09
2022-12-11T12:28:41.983Z,100379.03
2022-12-11T12:31:47.623Z,100386.13
2022-12-11T12:34:57.637Z,100376.94
2022-12-11T12:37:36.984Z,100373.19
2022-12-11T12:40:17.789Z,100368.97
2022-12-11T12:42:58.661Z,100375.34
2022-12-11T12:45:40.156Z,100376.97
2022-12-11T12:48:11.885Z,100374.28
2022-12-11T12:50:48.433Z,100362.69
2022-12-11T12:53:23.654Z,100364.09
2022-12-11T12:55:54.667Z,100367.88
2022-12-11T12:58:53.254Z,100367.53
2022-12-11T13:01:28.878Z,100354.31
2022-12-11T13:04:20.769Z,100352.75
2022-12-11T13:06:59.015Z,100342.47
2022-12-11T13:09:30.352Z,100356.22
2022-12-11T13:12:00.417Z,100349.53
2022-12-11T13:14:34.946Z,100338.88
2022-12-11T13:17:23.479Z,100329.63
2022-12-11T13:20:16.681Z,100330.53
2022-12-11T13:23:08.975Z,100329.50
2022-12-11T13:25:58.615Z,100320.69
2022-12-11T13:28:33.261Z,100327.97
2022-12-11T13:31:18.355Z,100323.00
2022-12-11T13:33:51.493Z,100318.44
2022-12-11T13:36:24.751Z,100313.84
2022-12-11T13:39:06.168Z,100306.22
2022-12-11T13:41:39.461Z,100297.19
2022-12-11T13:44:16.683Z,100277.47
2022-12-11T13:46:47.291Z,100293.03
2022-12-11T13:49:30.374Z,100290.53
2022-12-11T13:52:02.267Z,100286.53
2022-12-11T13:54:35.174Z,100284.50
2022-12-11T13:57:05.562Z,100271.44
2022-12-11T13:59:38.181Z,100257.09
2022-12-11T14:02:21.566Z,100260.81
2022-12-11T14:04:56.044Z,100254.75
2022-12-11T14:07:36.118Z,100254.03
2022-12-11T14:10:22.088Z,100250.47
2022-12-11T14:13:01.106Z,100252.53
2022-12-11T14:15:32.878Z,100241.63
2022-12-11T14:18:03.524Z,100247.22
2022-12-11T14:20:36.878Z,100247.22
2022-12-11T14:23:10.623Z,100250.97
2022-12-11T14:25:40.629Z,100244.47
2022-12-11T14:28:19.570Z,100239.81
2022-12-11T14:30:55.460Z,100228.00
2022-12-11T14:33:29.998Z,100230.59
2022-12-11T14:36:02.025Z,100232.09
2022-12-11T14:39:01.682Z,100220.53
2022-12-11T14:41:36.420Z,100219.88
2022-12-11T14:44:09.483Z,100205.78
2022-12-11T14:46:45.503Z,100196.06
2022-12-11T14:49:41.428Z,100199.38
2022-12-11T14:52:22.744Z,100209.44
2022-12-11T14:55:02.982Z,100204.88
2022-12-11T14:57:35.626Z,100199.00
2022-12-11T15:00:06.774Z,100205.75
2022-12-11T15:02:38.667Z,100202.19
2022-12-11T15:05:19.430Z,100194.66
2022-12-11T15:08:05.001Z,100184.03
2022-12-11T15:10:56.470Z,100175.88
2022-12-11T15:13:27.108Z,100183.78
2022-12-11T15:15:57.830Z,100162.94
2022-12-11T15:18:32.739Z,100167.31
2022-12-11T15:21:10.518Z,100167.00
2022-12-11T15:23:58.886Z,100156.91
2022-12-11T15:26:38.615Z,100160.09
2022-12-11T15:29:28.468Z,100150.13
2022-12-11T15:32:20.949Z,100155.28
2022-12-11T15:34:53.300Z,100152.28
2022-12-11T15:37:26.401Z,100157.88
2022-12-11T15:39:59.385Z,100147.69
2022-12-11T15:42:34.761Z,100148.81
2022-12-11T15:45:08.743Z,100139.53
2022-12-11T15:47:38.863Z,100137.38
2022-12-11T15:50:27.135Z,100127.59
2022-12-11T15:53:26.114Z,100129.09
2022-12-11T15:55:57.477Z,100119.25
2022-12-11T15:58:29.181Z,100099.91
2022-12-11T16:00:59.851Z,100111.47
2022-12-11T16:03:30.041Z,100107.06
2022-12-11T16:06:00.741Z,100101.94
2022-12-11T16:08:30.948Z,100094.03
2022-12-11T16:11:01.437Z,100094.47
2022-12-11T16:13:31.911Z,100077.97
2022-12-11T16:16:02.415Z,100084.19
2022-12-11T16:18:33.016Z,100088.06
2022-12-11T16:21:07.384Z,100079.06
2022-12-11T16:23:37.440Z,100070.69
2022-12-11T16:26:10.765Z,100072.06
2022-12-11T16:28:41.105Z,100061.72
2022-12-11T16:31:15.329Z,100070.25
2022-12-11T16:33:48.511Z,100062.28
2022-12-11T16:36:21.066Z,100073.25
2022-12-11T16:38:53.979Z,100051.28
2022-12-11T16:41:25.275Z,100055.94
2022-12-11T16:43:56.059Z,100054.78
2022-12-11T16:46:27.071Z,100055.63
2022-12-11T16:48:58.046Z,100055.53
2022-12-11T16:51:28.521Z,100051.72
2022-12-11T16:53:58.656Z,100048.28
2022-12-11T16:56:28.633Z,100051.94
2022-12-11T16:58:59.164Z,100029.25
2022-12-11T17:01:29.890Z,100035.03
2022-12-11T17:04:00.492Z,100039.09
2022-12-11T17:06:30.502Z,100017.63
2022-12-11T17:09:00.319Z,100013.06
2022-12-11T17:11:30.872Z,100011.72
2022-12-11T17:14:01.939Z,100013.75
2022-12-11T17:16:33.524Z,100004.00
2022-12-11T17:19:04.564Z,100000.41
2022-12-11T17:21:35.212Z,99998.06
2022-12-11T17:24:07.317Z,99997.81
2022-12-11T17:26:37.944Z,99980.19
2022-12-11T17:29:08.056Z,99971.53
2022-12-11T17:31:38.764Z,99978.63
2022-12-11T17:34:09.101Z,99971.63
2022-12-11T17:36:39.535Z,99973.34
2022-12-11T17:39:09.621Z,99957.56
2022-12-11T17:41:40.388Z,99966.38
2022-12-11T17:44:11.736Z,99961.22
2022-12-11T17:46:42.224Z,99961.66
2022-12-11T17:49:12.429Z,99965.38
2022-12-11T17:51:42.930Z,99959.06
2022-12-11T17:54:13.639Z,99955.59
2022-12-11T17:56:44.117Z,99943.31
2022-12-11T17:59:14.250Z,99942.69
2022-12-11T18:01:44.738Z,99939.03
2022-12-11T18:04:17.784Z,99930.97
2022-12-11T18:06:48.405Z,99925.03
2022-12-11T18:09:20.737Z,99922.81
2022-12-11T18:11:51.187Z,99902.81
2022-12-11T18:14:24.381Z,99905.22
2022-12-11T18:16:54.855Z,99895.97
2022-12-11T18:19:26.517Z,99898.66
2022-12-11T18:21:57.298Z,99886.88
2022-12-11T18:24:32.802Z,99873.41
2022-12-11T18:27:03.760Z,99867.63
2022-12-11T18:29:33.694Z,99872.81
2022-12-11T18:32:03.591Z,99877.38
2022-12-11T18:34:34.627Z,99871.25
2022-12-11T18:37:04.587Z,99870.69
2022-12-11T18:39:34.442Z,99855.19
2022-12-11T18:42:31.585Z,99862.97
2022-12-11T18:44:55.137Z,99851.59
2022-12-11T18:47:25.641Z,99838.47
2022-12-11T18:50:02.471Z,99848.72
2022-12-11T18:52:36.750Z,99834.63
2022-12-11T18:55:07.545Z,99834.00
2022-12-11T18:57:37.861Z,99832.50
2022-12-11T19:00:10.013Z,99825.31
2022-12-11T19:02:40.373Z,99809.31
2022-12-11T19:05:11.799Z,99811.94
2022-12-11T19:07:42.368Z,99809.53
2022-12-11T19:10:12.588Z,99806.47
2022-12-11T19:12:44.073Z,99782.44
2022-12-11T19:15:15.776Z,99804.16
2022-12-11T19:17:47.818Z,99799.59
2022-12-11T19:20:47.519Z,99774.19
2022-12-11T19:23:09.300Z,99779.38
2022-12-11T19:25:50.162Z,99778.09
2022-12-11T19:28:20.583Z,99773.25
2022-12-11T19:30:51.883Z,99770.00
2022-12-11T19:33:22.309Z,99771.94
2022-12-11T19:36:06.326Z,99761.91
2022-12-11T19:38:37.555Z,99757.75
2022-12-11T19:41:09.403Z,99756.03
2022-12-11T19:43:40.201Z,99758.38
2022-12-11T19:46:11.551Z,99747.31
2022-12-11T19:48:42.956Z,99742.56
2022-12-11T19:51:16.909Z,99742.06
2022-12-11T19:53:50.225Z,99733.41
2022-12-11T19:56:24.027Z,99726.97
2022-12-11T19:58:54.650Z,99721.97
2022-12-11T20:01:32.201Z,99733.56
2022-12-11T20:04:08.866Z,99737.19
2022-12-11T20:06:44.073Z,99719.16
2022-12-11T20:09:15.188Z,99719.81
2022-12-11T20:11:47.135Z,99720.84
2022-12-11T20:14:24.674Z,99716.91
2022-12-11T20:17:12.089Z,99716.94
2022-12-11T20:19:43.197Z,99724.63
2022-12-11T20:22:13.360Z,99727.88
2022-12-11T20:24:43.732Z,99720.50
2022-12-11T20:27:13.679Z,99728.47
2022-12-11T20:29:44.113Z,99727.16
2022-12-11T20:32:14.229Z,99718.41
2022-12-11T20:34:44.717Z,99714.00
2022-12-11T20:37:14.461Z,99720.41
2022-12-11T20:39:44.961Z,99718.97
2022-12-11T20:42:15.126Z,99729.06
2022-12-11T20:44:49.284Z,99727.50
2022-12-11T20:47:24.112Z,99728.69
2022-12-11T20:49:54.529Z,99717.25
2022-12-11T20:52:24.415Z,99727.91
2022-12-11T20:54:54.886Z,99714.47
2022-12-11T20:57:24.935Z,99727.00
2022-12-11T20:59:55.336Z,99731.50
2022-12-11T21:02:25.561Z,99743.44
2022-12-11T21:04:55.891Z,99746.38
2022-12-11T21:07:26.907Z,99752.88
2022-12-11T21:09:57.281Z,99749.88
2022-12-11T21:12:31.567Z,99749.88
2022-12-11T21:15:02.263Z,99746.00
2022-12-11T21:17:32.251Z,99755.91
2022-12-11T21:20:02.683Z,99752.97
2022-12-11T21:22:32.453Z,99751.69
2022-12-11T21:25:03.053Z,99765.09
2022-12-11T21:27:35.948Z,99760.47
2022-12-11T21:30:07.470Z,99769.59
2022-12-11T21:32:37.523Z,99771.63
2022-12-11T21:35:08.414Z,99770.53
2022-12-11T21:37:43.008Z,99771.00
2022-12-11T21:40:13.725Z,99764.00
2022-12-11T21:42:43.914Z,99775.69
2022-12-11T21:45:52.079Z,99768.19
2022-12-11T21:48:04.438Z,99775.91
2022-12-11T21:50:34.814Z,99771.16
2022-12-11T21:53:05.003Z,99774.97
2022-12-11T21:55:36.293Z,99773.25
2022-12-11T21:58:06.338Z,99776.53
2022-12-11T22:00:40.834Z,99780.28
2022-12-11T22:03:12.029Z,99769.94
2022-12-11T22:05:42.437Z,99772.84
2022-12-11T22:08:12.531Z,99770.91
2022-12-11T22:10:43.060Z,99772.69
2022-12-11T22:13:13.127Z,99776.78
2022-12-11T22:15:43.542Z,99787.56
2022-12-11T22:18:14.128Z,99780.19
2022-12-11T22:20:45.000Z,99781.03
2022-12-11T22:23:15.410Z,99783.56
2022-12-11T22:25:51.316Z,99773.50
2022-12-11T22:28:23.561Z,99782.69
2022-12-11T22:30:54.042Z,99786.06
2022-12-11T22:33:24.161Z,99793.75
2022-12-11T22:35:59.109Z,99794.69
2022-12-11T22:38:29.169Z,99796.88
2022-12-11T22:40:59.585Z,99805.69
2022-12-11T22:43:29.652Z,99801.44
2022-12-11T22:46:03.068Z,99807.94
2022-12-11T22:48:33.323Z,99821.31
2022-12-11T22:51:08.049Z,99821.75
2022-12-11T22:53:38.264Z,99831.63
2022-12-11T22:56:13.943Z,99826.66
2022-12-11T22:58:44.048Z,99818.56
2022-12-11T23:01:18.571Z,99831.09
2022-12-11T23:03:49.282Z,99830.97
2022-12-11T23:06:22.431Z,99823.13
2022-12-11T23:08:53.540Z,99822.59
2022-12-11T23:11:30.044Z,99835.31
2022-12-11T23:14:00.329Z,99840.28
2022-12-11T23:16:30.838Z,99825.44
2022-12-11T23:19:01.345Z,99822.75
2022-12-11T23:21:33.976Z,99822.38
2022-12-11T23:24:03.956Z,99826.41
2022-12-11T23:26:34.411Z,99817.69
2022-12-11T23:29:08.634Z,99815.94
2022-12-11T23:31:41.410Z,99819.06
2022-12-11T23:34:11.416Z,99810.06
2022-12-11T23:36:41.875Z,99811.28
2022-12-11T23:39:12.412Z,99805.38
2022-12-11T23:41:43.799Z,99809.31
2022-12-11T23:44:14.077Z,99810.69
2022-12-11T23:46:46.019Z,99789.66
2022-12-11T23:49:16.080Z,99818.47
2022-12-11T23:51:46.569Z,99825.28
2022-12-11T23:54:16.569Z,99819.25
2022-12-11T23:56:45.827Z,99817.44
2022-12-11T23:59:16.752Z,99819.03
